sensor_id;sensor_type;location;lat;lon;timestamp;P1;durP1;ratioP1;P2;durP2;ratioP2
9294;SDS011;4686;44.496;11.324;2022-12-07T00:00:51;81.97;;;48.77;;
9294;SDS011;4686;44.496;11.324;2022-12-07T00:03:18;90.03;;;49.60;;
9294;SDS011;4686;44.496;11.324;2022-12-07T00:05:47;92.83;;;47.87;;
9294;SDS011;4686;44.496;11.324;2022-12-07T00:08:16;90.60;;;51.13;;
9294;SDS011;4686;44.496;11.324;2022-12-07T00:10:43;88.27;;;48.10;;
9294;SDS011;4686;44.496;11.324;2022-12-07T00:13:11;97.87;;;51.70;;
9294;SDS011;4686;44.496;11.324;2022-12-07T00:15:38;106.10;;;49.50;;
9294;SDS011;4686;44.496;11.324;2022-12-07T00:18:05;91.97;;;49.80;;
9294;SDS011;4686;44.496;11.324;2022-12-07T00:20:33;96.63;;;50.20;;
9294;SDS011;4686;44.496;11.324;2022-12-07T00:23:01;97.93;;;51.20;;
9294;SDS011;4686;44.496;11.324;2022-12-07T00:25:29;91.07;;;48.97;;
9294;SDS011;4686;44.496;11.324;2022-12-07T00:27:57;108.57;;;51.50;;
9294;SDS011;4686;44.496;11.324;2022-12-07T00:30:24;98.57;;;50.80;;
9294;SDS011;4686;44.496;11.324;2022-12-07T00:32:52;92.57;;;49.40;;
9294;SDS011;4686;44.496;11.324;2022-12-07T00:35:21;102.27;;;51.90;;
9294;SDS011;4686;44.496;11.324;2022-12-07T00:37:48;98.77;;;51.07;;
9294;SDS011;4686;44.496;11.324;2022-12-07T00:40:17;90.87;;;50.43;;
9294;SDS011;4686;44.496;11.324;2022-12-07T00:42:44;91.50;;;46.50;;
9294;SDS011;4686;44.496;11.324;2022-12-07T00:45:11;97.67;;;49.83;;
9294;SDS011;4686;44.496;11.324;2022-12-07T00:47:40;90.23;;;48.00;;
9294;SDS011;4686;44.496;11.324;2022-12-07T00:50:07;87.60;;;46.83;;
9294;SDS011;4686;44.496;11.324;2022-12-07T00:52:35;95.63;;;49.53;;
9294;SDS011;4686;44.496;11.324;2022-12-07T00:55:02;91.40;;;48.07;;
9294;SDS011;4686;44.496;11.324;2022-12-07T00:57:31;86.93;;;44.83;;
9294;SDS011;4686;44.496;11.324;2022-12-07T00:59:58;86.07;;;44.80;;
9294;SDS011;4686;44.496;11.324;2022-12-07T01:02:26;106.90;;;48.03;;
9294;SDS011;4686;44.496;11.324;2022-12-07T01:04:53;95.17;;;48.20;;
9294;SDS011;4686;44.496;11.324;2022-12-07T01:07:21;93.03;;;48.70;;
9294;SDS011;4686;44.496;11.324;2022-12-07T01:09:48;88.10;;;44.97;;
9294;SDS011;4686;44.496;11.324;2022-12-07T01:12:16;86.00;;;45.27;;
9294;SDS011;4686;44.496;11.324;2022-12-07T01:14:45;85.83;;;47.43;;
9294;SDS011;4686;44.496;11.324;2022-12-07T01:17:12;90.07;;;45.50;;
9294;SDS011;4686;44.496;11.324;2022-12-07T01:19:39;85.87;;;45.97;;
9294;SDS011;4686;44.496;11.324;2022-12-07T01:22:06;83.27;;;44.97;;
9294;SDS011;4686;44.496;11.324;2022-12-07T01:24:34;86.03;;;45.63;;
9294;SDS011;4686;44.496;11.324;2022-12-07T01:27:01;79.53;;;45.60;;
9294;SDS011;4686;44.496;11.324;2022-12-07T01:29:29;93.47;;;44.07;;
9294;SDS011;4686;44.496;11.324;2022-12-07T01:31:57;84.00;;;44.50;;
9294;SDS011;4686;44.496;11.324;2022-12-07T01:34:25;99.57;;;45.17;;
9294;SDS011;4686;44.496;11.324;2022-12-07T01:36:52;86.03;;;45.63;;
9294;SDS011;4686;44.496;11.324;2022-12-07T01:39:19;79.57;;;44.00;;
9294;SDS011;4686;44.496;11.324;2022-12-07T01:41:46;88.67;;;45.17;;
9294;SDS011;4686;44.496;11.324;2022-12-07T01:44:18;102.83;;;45.80;;
9294;SDS011;4686;44.496;11.324;2022-12-07T01:46:46;91.47;;;42.87;;
9294;SDS011;4686;44.496;11.324;2022-12-07T01:49:20;94.50;;;44.60;;
9294;SDS011;4686;44.496;11.324;2022-12-07T01:51:49;118.97;;;43.57;;
9294;SDS011;4686;44.496;11.324;2022-12-07T01:54:16;93.17;;;43.57;;
9294;SDS011;4686;44.496;11.324;2022-12-07T01:56:45;99.57;;;41.60;;
9294;SDS011;4686;44.496;11.324;2022-12-07T01:59:16;90.27;;;39.43;;
9294;SDS011;4686;44.496;11.324;2022-12-07T02:01:44;79.90;;;43.67;;
9294;SDS011;4686;44.496;11.324;2022-12-07T02:04:11;73.40;;;40.80;;
9294;SDS011;4686;44.496;11.324;2022-12-07T02:06:43;66.27;;;39.47;;
9294;SDS011;4686;44.496;11.324;2022-12-07T02:09:11;76.40;;;40.13;;
9294;SDS011;4686;44.496;11.324;2022-12-07T02:11:39;91.77;;;39.47;;
9294;SDS011;4686;44.496;11.324;2022-12-07T02:14:06;76.13;;;40.90;;
9294;SDS011;4686;44.496;11.324;2022-12-07T02:16:35;81.00;;;40.50;;
9294;SDS011;4686;44.496;11.324;2022-12-07T02:21:55;74.00;;;38.63;;
9294;SDS011;4686;44.496;11.324;2022-12-07T02:24:30;84.27;;;41.27;;
9294;SDS011;4686;44.496;11.324;2022-12-07T02:29:52;83.53;;;40.27;;
9294;SDS011;4686;44.496;11.324;2022-12-07T02:32:23;100.67;;;43.03;;
9294;SDS011;4686;44.496;11.324;2022-12-07T02:34:52;79.47;;;38.93;;
9294;SDS011;4686;44.496;11.324;2022-12-07T02:37:25;86.77;;;40.97;;
9294;SDS011;4686;44.496;11.324;2022-12-07T02:39:55;96.00;;;41.27;;
9294;SDS011;4686;44.496;11.324;2022-12-07T02:42:25;87.67;;;42.40;;
9294;SDS011;4686;44.496;11.324;2022-12-07T02:44:55;82.47;;;42.27;;
9294;SDS011;4686;44.496;11.324;2022-12-07T02:47:22;80.53;;;40.93;;
9294;SDS011;4686;44.496;11.324;2022-12-07T02:49:51;87.57;;;41.00;;
9294;SDS011;4686;44.496;11.324;2022-12-07T02:52:19;76.07;;;39.67;;
9294;SDS011;4686;44.496;11.324;2022-12-07T02:54:46;85.73;;;42.97;;
9294;SDS011;4686;44.496;11.324;2022-12-07T02:57:18;83.30;;;41.63;;
9294;SDS011;4686;44.496;11.324;2022-12-07T02:59:50;83.20;;;40.97;;
9294;SDS011;4686;44.496;11.324;2022-12-07T03:02:24;78.27;;;41.60;;
9294;SDS011;4686;44.496;11.324;2022-12-07T03:04:56;83.30;;;43.17;;
9294;SDS011;4686;44.496;11.324;2022-12-07T03:07:29;68.83;;;38.70;;
9294;SDS011;4686;44.496;11.324;2022-12-07T03:10:06;86.63;;;43.30;;
9294;SDS011;4686;44.496;11.324;2022-12-07T03:12:36;78.33;;;41.43;;
9294;SDS011;4686;44.496;11.324;2022-12-07T03:15:07;82.93;;;40.80;;
9294;SDS011;4686;44.496;11.324;2022-12-07T03:17:38;79.43;;;41.70;;
9294;SDS011;4686;44.496;11.324;2022-12-07T03:20:07;77.50;;;42.60;;
9294;SDS011;4686;44.496;11.324;2022-12-07T03:22:36;79.73;;;40.60;;
9294;SDS011;4686;44.496;11.324;2022-12-07T03:25:06;79.00;;;43.27;;
9294;SDS011;4686;44.496;11.324;2022-12-07T03:27:35;86.47;;;45.13;;
9294;SDS011;4686;44.496;11.324;2022-12-07T03:30:04;87.80;;;43.23;;
9294;SDS011;4686;44.496;11.324;2022-12-07T03:32:34;89.87;;;43.70;;
9294;SDS011;4686;44.496;11.324;2022-12-07T03:35:05;95.93;;;43.97;;
9294;SDS011;4686;44.496;11.324;2022-12-07T03:37:35;85.43;;;42.93;;
9294;SDS011;4686;44.496;11.324;2022-12-07T03:40:06;91.50;;;43.23;;
9294;SDS011;4686;44.496;11.324;2022-12-07T03:42:34;92.10;;;46.87;;
9294;SDS011;4686;44.496;11.324;2022-12-07T03:45:02;95.73;;;47.83;;
9294;SDS011;4686;44.496;11.324;2022-12-07T03:47:31;87.50;;;47.20;;
9294;SDS011;4686;44.496;11.324;2022-12-07T03:50:00;83.77;;;44.77;;
9294;SDS011;4686;44.496;11.324;2022-12-07T03:52:32;95.43;;;47.70;;
9294;SDS011;4686;44.496;11.324;2022-12-07T03:55:02;87.47;;;45.87;;
9294;SDS011;4686;44.496;11.324;2022-12-07T03:57:32;96.53;;;47.20;;
9294;SDS011;4686;44.496;11.324;2022-12-07T04:00:00;100.57;;;45.07;;
9294;SDS011;4686;44.496;11.324;2022-12-07T04:02:28;103.30;;;50.03;;
9294;SDS011;4686;44.496;11.324;2022-12-07T04:04:55;104.60;;;47.50;;
9294;SDS011;4686;44.496;11.324;2022-12-07T04:07:23;111.40;;;51.10;;
9294;SDS011;4686;44.496;11.324;2022-12-07T04:09:51;104.97;;;49.37;;
9294;SDS011;4686;44.496;11.324;2022-12-07T04:12:20;96.53;;;47.80;;
9294;SDS011;4686;44.496;11.324;2022-12-07T04:14:47;111.40;;;52.33;;
9294;SDS011;4686;44.496;11.324;2022-12-07T04:17:14;110.80;;;50.37;;
9294;SDS011;4686;44.496;11.324;2022-12-07T04:19:42;101.23;;;50.30;;
9294;SDS011;4686;44.496;11.324;2022-12-07T04:22:09;102.30;;;47.50;;
9294;SDS011;4686;44.496;11.324;2022-12-07T04:24:36;101.73;;;46.63;;
9294;SDS011;4686;44.496;11.324;2022-12-07T04:27:05;103.47;;;48.53;;
9294;SDS011;4686;44.496;11.324;2022-12-07T04:29:32;112.10;;;51.83;;
9294;SDS011;4686;44.496;11.324;2022-12-07T04:31:59;100.00;;;49.23;;
9294;SDS011;4686;44.496;11.324;2022-12-07T04:34:26;97.17;;;49.80;;
9294;SDS011;4686;44.496;11.324;2022-12-07T04:36:54;102.10;;;50.17;;
9294;SDS011;4686;44.496;11.324;2022-12-07T04:39:22;99.43;;;48.20;;
9294;SDS011;4686;44.496;11.324;2022-12-07T04:41:52;99.50;;;49.67;;
9294;SDS011;4686;44.496;11.324;2022-12-07T04:44:21;98.53;;;48.13;;
9294;SDS011;4686;44.496;11.324;2022-12-07T04:46:49;100.13;;;47.67;;
9294;SDS011;4686;44.496;11.324;2022-12-07T04:49:17;110.43;;;51.20;;
9294;SDS011;4686;44.496;11.324;2022-12-07T04:51:44;103.13;;;49.13;;
9294;SDS011;4686;44.496;11.324;2022-12-07T04:54:12;102.37;;;48.77;;
9294;SDS011;4686;44.496;11.324;2022-12-07T04:56:39;105.20;;;49.70;;
9294;SDS011;4686;44.496;11.324;2022-12-07T04:59:07;109.60;;;48.33;;
9294;SDS011;4686;44.496;11.324;2022-12-07T05:01:36;104.20;;;48.90;;
9294;SDS011;4686;44.496;11.324;2022-12-07T05:04:03;99.47;;;50.50;;
9294;SDS011;4686;44.496;11.324;2022-12-07T05:06:30;109.47;;;49.13;;
9294;SDS011;4686;44.496;11.324;2022-12-07T05:08:57;103.37;;;49.80;;
9294;SDS011;4686;44.496;11.324;2022-12-07T05:11:25;105.60;;;50.00;;
9294;SDS011;4686;44.496;11.324;2022-12-07T05:14:05;106.20;;;49.67;;
9294;SDS011;4686;44.496;11.324;2022-12-07T05:16:32;99.30;;;46.80;;
9294;SDS011;4686;44.496;11.324;2022-12-07T05:19:01;99.93;;;48.47;;
9294;SDS011;4686;44.496;11.324;2022-12-07T05:21:28;103.83;;;50.37;;
9294;SDS011;4686;44.496;11.324;2022-12-07T05:23:55;103.50;;;49.23;;
9294;SDS011;4686;44.496;11.324;2022-12-07T05:26:22;105.33;;;49.67;;
9294;SDS011;4686;44.496;11.324;2022-12-07T05:28:50;105.10;;;48.93;;
9294;SDS011;4686;44.496;11.324;2022-12-07T05:31:18;105.30;;;51.43;;
9294;SDS011;4686;44.496;11.324;2022-12-07T05:33:45;113.00;;;52.27;;
9294;SDS011;4686;44.496;11.324;2022-12-07T05:36:14;110.00;;;50.60;;
9294;SDS011;4686;44.496;11.324;2022-12-07T05:38:41;116.33;;;50.30;;
9294;SDS011;4686;44.496;11.324;2022-12-07T05:41:09;105.33;;;48.70;;
9294;SDS011;4686;44.496;11.324;2022-12-07T05:43:59;112.87;;;50.70;;
9294;SDS011;4686;44.496;11.324;2022-12-07T05:46:26;98.93;;;49.77;;
9294;SDS011;4686;44.496;11.324;2022-12-07T05:48:54;118.87;;;52.33;;
9294;SDS011;4686;44.496;11.324;2022-12-07T05:51:22;103.57;;;50.67;;
9294;SDS011;4686;44.496;11.324;2022-12-07T05:53:50;119.10;;;51.10;;
9294;SDS011;4686;44.496;11.324;2022-12-07T05:56:17;100.23;;;48.70;;
9294;SDS011;4686;44.496;11.324;2022-12-07T05:58:44;112.30;;;51.60;;
9294;SDS011;4686;44.496;11.324;2022-12-07T06:01:29;97.80;;;48.70;;
9294;SDS011;4686;44.496;11.324;2022-12-07T06:03:57;99.57;;;47.67;;
9294;SDS011;4686;44.496;11.324;2022-12-07T06:06:25;94.47;;;48.47;;
9294;SDS011;4686;44.496;11.324;2022-12-07T06:08:54;106.03;;;49.90;;
9294;SDS011;4686;44.496;11.324;2022-12-07T06:11:21;109.43;;;51.40;;
9294;SDS011;4686;44.496;11.324;2022-12-07T06:14:06;98.27;;;49.10;;
9294;SDS011;4686;44.496;11.324;2022-12-07T06:16:33;101.50;;;51.27;;
9294;SDS011;4686;44.496;11.324;2022-12-07T06:19:01;105.73;;;52.07;;
9294;SDS011;4686;44.496;11.324;2022-12-07T06:21:29;92.47;;;50.23;;
9294;SDS011;4686;44.496;11.324;2022-12-07T06:23:57;98.07;;;47.80;;
9294;SDS011;4686;44.496;11.324;2022-12-07T06:26:24;107.93;;;50.50;;
9294;SDS011;4686;44.496;11.324;2022-12-07T06:28:51;97.00;;;45.50;;
9294;SDS011;4686;44.496;11.324;2022-12-07T06:31:18;91.07;;;45.70;;
9294;SDS011;4686;44.496;11.324;2022-12-07T06:33:45;88.63;;;45.23;;
9294;SDS011;4686;44.496;11.324;2022-12-07T06:36:13;84.60;;;44.57;;
9294;SDS011;4686;44.496;11.324;2022-12-07T06:38:41;83.10;;;43.33;;
9294;SDS011;4686;44.496;11.324;2022-12-07T06:41:09;71.17;;;41.37;;
9294;SDS011;4686;44.496;11.324;2022-12-07T06:43:36;74.17;;;42.00;;
9294;SDS011;4686;44.496;11.324;2022-12-07T06:46:04;77.50;;;42.87;;
9294;SDS011;4686;44.496;11.324;2022-12-07T06:48:31;72.23;;;41.30;;
9294;SDS011;4686;44.496;11.324;2022-12-07T06:50:58;64.93;;;40.37;;
9294;SDS011;4686;44.496;11.324;2022-12-07T06:53:25;72.17;;;42.57;;
9294;SDS011;4686;44.496;11.324;2022-12-07T06:55:54;60.17;;;38.10;;
9294;SDS011;4686;44.496;11.324;2022-12-07T06:58:24;64.77;;;39.10;;
9294;SDS011;4686;44.496;11.324;2022-12-07T07:00:51;79.77;;;39.40;;
9294;SDS011;4686;44.496;11.324;2022-12-07T07:03:18;70.20;;;41.20;;
9294;SDS011;4686;44.496;11.324;2022-12-07T07:05:46;69.23;;;41.27;;
9294;SDS011;4686;44.496;11.324;2022-12-07T07:08:13;65.23;;;39.60;;
9294;SDS011;4686;44.496;11.324;2022-12-07T07:10:41;70.70;;;42.43;;
9294;SDS011;4686;44.496;11.324;2022-12-07T07:13:09;76.30;;;44.17;;
9294;SDS011;4686;44.496;11.324;2022-12-07T07:15:37;62.57;;;40.43;;
9294;SDS011;4686;44.496;11.324;2022-12-07T07:18:04;66.33;;;42.60;;
9294;SDS011;4686;44.496;11.324;2022-12-07T07:20:32;76.37;;;45.30;;
9294;SDS011;4686;44.496;11.324;2022-12-07T07:22:59;70.23;;;43.60;;
9294;SDS011;4686;44.496;11.324;2022-12-07T07:25:27;67.53;;;44.20;;
9294;SDS011;4686;44.496;11.324;2022-12-07T07:27:54;67.67;;;43.70;;
9294;SDS011;4686;44.496;11.324;2022-12-07T07:30:23;58.90;;;41.20;;
9294;SDS011;4686;44.496;11.324;2022-12-07T07:32:50;64.53;;;41.80;;
9294;SDS011;4686;44.496;11.324;2022-12-07T07:35:17;65.50;;;40.17;;
9294;SDS011;4686;44.496;11.324;2022-12-07T07:37:47;66.13;;;41.47;;
9294;SDS011;4686;44.496;11.324;2022-12-07T07:40:14;65.10;;;41.30;;
9294;SDS011;4686;44.496;11.324;2022-12-07T07:42:41;65.07;;;42.30;;
9294;SDS011;4686;44.496;11.324;2022-12-07T07:45:09;64.90;;;42.13;;
9294;SDS011;4686;44.496;11.324;2022-12-07T07:47:38;58.87;;;39.37;;
9294;SDS011;4686;44.496;11.324;2022-12-07T07:50:06;65.00;;;41.83;;
9294;SDS011;4686;44.496;11.324;2022-12-07T07:52:33;65.23;;;43.27;;
9294;SDS011;4686;44.496;11.324;2022-12-07T07:55:00;69.47;;;40.60;;
9294;SDS011;4686;44.496;11.324;2022-12-07T07:57:30;64.50;;;42.10;;
9294;SDS011;4686;44.496;11.324;2022-12-07T07:59:57;68.13;;;42.40;;
9294;SDS011;4686;44.496;11.324;2022-12-07T08:02:24;64.90;;;41.80;;
9294;SDS011;4686;44.496;11.324;2022-12-07T08:04:55;60.37;;;39.37;;
9294;SDS011;4686;44.496;11.324;2022-12-07T08:07:23;60.87;;;41.60;;
9294;SDS011;4686;44.496;11.324;2022-12-07T08:09:50;66.23;;;40.50;;
9294;SDS011;4686;44.496;11.324;2022-12-07T08:12:18;63.27;;;39.53;;
9294;SDS011;4686;44.496;11.324;2022-12-07T08:14:45;67.60;;;40.87;;
9294;SDS011;4686;44.496;11.324;2022-12-07T08:17:13;66.70;;;39.83;;
9294;SDS011;4686;44.496;11.324;2022-12-07T08:19:40;63.83;;;39.83;;
9294;SDS011;4686;44.496;11.324;2022-12-07T08:22:09;67.50;;;40.87;;
9294;SDS011;4686;44.496;11.324;2022-12-07T08:24:36;65.40;;;42.53;;
9294;SDS011;4686;44.496;11.324;2022-12-07T08:27:03;69.67;;;39.80;;
9294;SDS011;4686;44.496;11.324;2022-12-07T08:29:33;74.60;;;41.73;;
9294;SDS011;4686;44.496;11.324;2022-12-07T08:32:01;72.00;;;41.03;;
9294;SDS011;4686;44.496;11.324;2022-12-07T08:34:28;67.23;;;42.33;;
9294;SDS011;4686;44.496;11.324;2022-12-07T08:36:55;69.50;;;41.67;;
9294;SDS011;4686;44.496;11.324;2022-12-07T08:39:24;65.90;;;40.60;;
9294;SDS011;4686;44.496;11.324;2022-12-07T08:41:51;72.00;;;40.90;;
9294;SDS011;4686;44.496;11.324;2022-12-07T08:44:18;70.77;;;41.60;;
9294;SDS011;4686;44.496;11.324;2022-12-07T08:46:46;67.90;;;42.23;;
9294;SDS011;4686;44.496;11.324;2022-12-07T08:49:15;76.43;;;44.17;;
9294;SDS011;4686;44.496;11.324;2022-12-07T08:51:43;74.87;;;43.60;;
9294;SDS011;4686;44.496;11.324;2022-12-07T08:54:12;72.80;;;44.10;;
9294;SDS011;4686;44.496;11.324;2022-12-07T08:56:42;71.90;;;42.40;;
9294;SDS011;4686;44.496;11.324;2022-12-07T08:59:12;74.30;;;44.00;;
9294;SDS011;4686;44.496;11.324;2022-12-07T09:01:41;83.73;;;48.67;;
9294;SDS011;4686;44.496;11.324;2022-12-07T09:04:08;67.97;;;43.20;;
9294;SDS011;4686;44.496;11.324;2022-12-07T09:06:36;75.23;;;45.60;;
9294;SDS011;4686;44.496;11.324;2022-12-07T09:09:03;69.20;;;45.37;;
9294;SDS011;4686;44.496;11.324;2022-12-07T09:11:31;78.20;;;46.60;;
9294;SDS011;4686;44.496;11.324;2022-12-07T09:14:00;72.53;;;47.37;;
9294;SDS011;4686;44.496;11.324;2022-12-07T09:16:27;77.60;;;47.17;;
9294;SDS011;4686;44.496;11.324;2022-12-07T09:18:55;77.57;;;49.00;;
9294;SDS011;4686;44.496;11.324;2022-12-07T09:21:22;79.70;;;48.33;;
9294;SDS011;4686;44.496;11.324;2022-12-07T09:23:49;78.73;;;49.30;;
9294;SDS011;4686;44.496;11.324;2022-12-07T09:26:16;73.10;;;45.00;;
9294;SDS011;4686;44.496;11.324;2022-12-07T09:28:44;79.60;;;48.97;;
9294;SDS011;4686;44.496;11.324;2022-12-07T09:31:12;77.70;;;48.13;;
9294;SDS011;4686;44.496;11.324;2022-12-07T09:33:40;72.17;;;46.63;;
9294;SDS011;4686;44.496;11.324;2022-12-07T09:36:07;77.43;;;47.50;;
9294;SDS011;4686;44.496;11.324;2022-12-07T09:38:35;71.20;;;47.10;;
9294;SDS011;4686;44.496;11.324;2022-12-07T09:41:06;76.80;;;48.10;;
9294;SDS011;4686;44.496;11.324;2022-12-07T09:43:34;79.20;;;49.30;;
9294;SDS011;4686;44.496;11.324;2022-12-07T09:46:04;71.63;;;46.67;;
9294;SDS011;4686;44.496;11.324;2022-12-07T09:48:36;83.23;;;48.87;;
9294;SDS011;4686;44.496;11.324;2022-12-07T09:51:09;73.50;;;47.70;;
9294;SDS011;4686;44.496;11.324;2022-12-07T09:53:41;78.70;;;48.87;;
9294;SDS011;4686;44.496;11.324;2022-12-07T09:56:12;78.13;;;47.53;;
9294;SDS011;4686;44.496;11.324;2022-12-07T09:58:41;82.80;;;49.30;;
9294;SDS011;4686;44.496;11.324;2022-12-07T10:01:10;76.67;;;50.30;;
9294;SDS011;4686;44.496;11.324;2022-12-07T10:03:40;76.83;;;49.67;;
9294;SDS011;4686;44.496;11.324;2022-12-07T10:06:09;77.50;;;50.37;;
9294;SDS011;4686;44.496;11.324;2022-12-07T10:08:40;84.20;;;52.10;;
9294;SDS011;4686;44.496;11.324;2022-12-07T10:11:11;84.50;;;52.17;;
9294;SDS011;4686;44.496;11.324;2022-12-07T10:13:41;83.60;;;52.10;;
9294;SDS011;4686;44.496;11.324;2022-12-07T10:16:25;79.40;;;52.27;;
9294;SDS011;4686;44.496;11.324;2022-12-07T10:18:54;83.40;;;53.50;;
9294;SDS011;4686;44.496;11.324;2022-12-07T10:21:22;76.60;;;52.40;;
9294;SDS011;4686;44.496;11.324;2022-12-07T10:24:02;76.33;;;53.20;;
9294;SDS011;4686;44.496;11.324;2022-12-07T10:26:33;71.20;;;47.60;;
9294;SDS011;4686;44.496;11.324;2022-12-07T10:29:02;61.83;;;48.10;;
9294;SDS011;4686;44.496;11.324;2022-12-07T10:31:31;68.30;;;47.83;;
9294;SDS011;4686;44.496;11.324;2022-12-07T10:34:01;66.00;;;47.13;;
9294;SDS011;4686;44.496;11.324;2022-12-07T10:36:33;76.40;;;50.10;;
9294;SDS011;4686;44.496;11.324;2022-12-07T10:39:03;73.97;;;49.70;;
9294;SDS011;4686;44.496;11.324;2022-12-07T10:41:31;70.83;;;50.30;;
9294;SDS011;4686;44.496;11.324;2022-12-07T10:43:58;68.50;;;49.70;;
9294;SDS011;4686;44.496;11.324;2022-12-07T10:46:51;62.87;;;46.30;;
9294;SDS011;4686;44.496;11.324;2022-12-07T10:49:28;67.07;;;46.57;;
9294;SDS011;4686;44.496;11.324;2022-12-07T10:52:00;63.00;;;45.97;;
9294;SDS011;4686;44.496;11.324;2022-12-07T10:54:31;70.63;;;46.07;;
9294;SDS011;4686;44.496;11.324;2022-12-07T10:57:04;68.77;;;48.20;;
9294;SDS011;4686;44.496;11.324;2022-12-07T10:59:39;65.90;;;46.57;;
9294;SDS011;4686;44.496;11.324;2022-12-07T11:02:14;68.90;;;49.63;;
9294;SDS011;4686;44.496;11.324;2022-12-07T11:04:52;69.70;;;48.17;;
9294;SDS011;4686;44.496;11.324;2022-12-07T11:07:22;68.20;;;46.03;;
9294;SDS011;4686;44.496;11.324;2022-12-07T11:09:56;67.13;;;48.40;;
9294;SDS011;4686;44.496;11.324;2022-12-07T11:12:32;69.37;;;47.10;;
9294;SDS011;4686;44.496;11.324;2022-12-07T11:15:02;64.10;;;48.20;;
9294;SDS011;4686;44.496;11.324;2022-12-07T11:17:32;66.47;;;48.70;;
9294;SDS011;4686;44.496;11.324;2022-12-07T11:20:04;64.37;;;45.40;;
9294;SDS011;4686;44.496;11.324;2022-12-07T11:22:40;62.00;;;45.50;;
9294;SDS011;4686;44.496;11.324;2022-12-07T11:25:14;64.47;;;44.00;;
9294;SDS011;4686;44.496;11.324;2022-12-07T11:27:44;62.43;;;44.17;;
9294;SDS011;4686;44.496;11.324;2022-12-07T11:30:16;61.80;;;44.70;;
9294;SDS011;4686;44.496;11.324;2022-12-07T11:32:52;59.73;;;42.30;;
9294;SDS011;4686;44.496;11.324;2022-12-07T11:35:24;64.83;;;46.67;;
9294;SDS011;4686;44.496;11.324;2022-12-07T11:37:55;66.20;;;46.30;;
9294;SDS011;4686;44.496;11.324;2022-12-07T11:40:24;61.17;;;45.80;;
9294;SDS011;4686;44.496;11.324;2022-12-07T11:42:55;64.80;;;46.77;;
9294;SDS011;4686;44.496;11.324;2022-12-07T11:45:25;60.03;;;46.60;;
9294;SDS011;4686;44.496;11.324;2022-12-07T11:47:54;66.73;;;45.40;;
9294;SDS011;4686;44.496;11.324;2022-12-07T11:50:28;56.27;;;42.53;;
9294;SDS011;4686;44.496;11.324;2022-12-07T11:53:00;54.60;;;41.57;;
9294;SDS011;4686;44.496;11.324;2022-12-07T11:55:31;56.80;;;43.77;;
9294;SDS011;4686;44.496;11.324;2022-12-07T11:58:01;55.40;;;42.70;;
9294;SDS011;4686;44.496;11.324;2022-12-07T12:00:30;62.20;;;44.50;;
9294;SDS011;4686;44.496;11.324;2022-12-07T12:02:59;61.07;;;45.60;;
9294;SDS011;4686;44.496;11.324;2022-12-07T12:05:29;63.10;;;46.87;;
9294;SDS011;4686;44.496;11.324;2022-12-07T12:07:59;59.03;;;45.17;;
9294;SDS011;4686;44.496;11.324;2022-12-07T12:10:30;57.30;;;44.20;;
9294;SDS011;4686;44.496;11.324;2022-12-07T12:13:03;60.80;;;44.67;;
9294;SDS011;4686;44.496;11.324;2022-12-07T12:15:38;57.93;;;43.23;;
9294;SDS011;4686;44.496;11.324;2022-12-07T12:18:13;53.83;;;41.50;;
9294;SDS011;4686;44.496;11.324;2022-12-07T12:20:46;57.63;;;42.27;;
9294;SDS011;4686;44.496;11.324;2022-12-07T12:23:17;54.93;;;43.70;;
9294;SDS011;4686;44.496;11.324;2022-12-07T12:25:46;57.70;;;41.67;;
9294;SDS011;4686;44.496;11.324;2022-12-07T12:28:19;57.13;;;43.20;;
9294;SDS011;4686;44.496;11.324;2022-12-07T12:30:55;56.53;;;41.90;;
9294;SDS011;4686;44.496;11.324;2022-12-07T12:33:30;57.30;;;40.83;;
9294;SDS011;4686;44.496;11.324;2022-12-07T12:38:51;61.13;;;42.10;;
9294;SDS011;4686;44.496;11.324;2022-12-07T12:44:10;59.03;;;41.40;;
9294;SDS011;4686;44.496;11.324;2022-12-07T12:46:57;58.80;;;42.43;;
9294;SDS011;4686;44.496;11.324;2022-12-07T12:55:00;57.03;;;44.87;;
9294;SDS011;4686;44.496;11.324;2022-12-07T12:57:29;69.13;;;48.70;;
9294;SDS011;4686;44.496;11.324;2022-12-07T12:59:57;59.80;;;44.83;;
9294;SDS011;4686;44.496;11.324;2022-12-07T13:02:27;65.20;;;46.60;;
9294;SDS011;4686;44.496;11.324;2022-12-07T13:04:55;69.10;;;48.80;;
9294;SDS011;4686;44.496;11.324;2022-12-07T13:10:19;61.13;;;43.60;;
9294;SDS011;4686;44.496;11.324;2022-12-07T13:12:57;57.80;;;42.80;;
9294;SDS011;4686;44.496;11.324;2022-12-07T13:15:31;62.03;;;45.20;;
9294;SDS011;4686;44.496;11.324;2022-12-07T13:18:00;60.97;;;45.70;;
9294;SDS011;4686;44.496;11.324;2022-12-07T13:20:44;61.27;;;45.73;;
9294;SDS011;4686;44.496;11.324;2022-12-07T13:23:11;63.27;;;45.00;;
9294;SDS011;4686;44.496;11.324;2022-12-07T13:25:43;60.33;;;43.47;;
9294;SDS011;4686;44.496;11.324;2022-12-07T13:28:14;59.20;;;44.70;;
9294;SDS011;4686;44.496;11.324;2022-12-07T13:30:45;60.30;;;44.33;;
9294;SDS011;4686;44.496;11.324;2022-12-07T13:33:14;61.63;;;45.10;;
9294;SDS011;4686;44.496;11.324;2022-12-07T13:35:42;57.27;;;43.57;;
9294;SDS011;4686;44.496;11.324;2022-12-07T13:38:16;55.50;;;43.50;;
9294;SDS011;4686;44.496;11.324;2022-12-07T13:41:00;57.37;;;40.90;;
9294;SDS011;4686;44.496;11.324;2022-12-07T13:43:27;57.40;;;43.43;;
9294;SDS011;4686;44.496;11.324;2022-12-07T13:45:58;58.57;;;44.63;;
9294;SDS011;4686;44.496;11.324;2022-12-07T13:48:28;62.47;;;47.37;;
9294;SDS011;4686;44.496;11.324;2022-12-07T13:50:58;55.90;;;42.50;;
9294;SDS011;4686;44.496;11.324;2022-12-07T13:53:27;57.67;;;45.90;;
9294;SDS011;4686;44.496;11.324;2022-12-07T13:55:55;59.13;;;44.87;;
9294;SDS011;4686;44.496;11.324;2022-12-07T13:58:24;67.53;;;44.40;;
9294;SDS011;4686;44.496;11.324;2022-12-07T14:00:52;63.03;;;45.10;;
9294;SDS011;4686;44.496;11.324;2022-12-07T14:03:23;65.13;;;46.03;;
9294;SDS011;4686;44.496;11.324;2022-12-07T14:06:03;58.10;;;46.40;;
9294;SDS011;4686;44.496;11.324;2022-12-07T14:08:30;58.90;;;43.80;;
9294;SDS011;4686;44.496;11.324;2022-12-07T14:10:58;58.20;;;45.67;;
9294;SDS011;4686;44.496;11.324;2022-12-07T14:13:29;55.03;;;44.07;;
9294;SDS011;4686;44.496;11.324;2022-12-07T14:15:59;60.93;;;44.37;;
9294;SDS011;4686;44.496;11.324;2022-12-07T14:18:27;60.00;;;45.67;;
9294;SDS011;4686;44.496;11.324;2022-12-07T14:21:04;58.33;;;45.10;;
9294;SDS011;4686;44.496;11.324;2022-12-07T14:23:31;60.30;;;44.10;;
9294;SDS011;4686;44.496;11.324;2022-12-07T14:26:06;58.37;;;44.77;;
9294;SDS011;4686;44.496;11.324;2022-12-07T14:28:36;59.43;;;44.87;;
9294;SDS011;4686;44.496;11.324;2022-12-07T14:31:07;58.60;;;44.70;;
9294;SDS011;4686;44.496;11.324;2022-12-07T14:33:36;59.77;;;45.30;;
9294;SDS011;4686;44.496;11.324;2022-12-07T14:36:04;58.10;;;44.50;;
9294;SDS011;4686;44.496;11.324;2022-12-07T14:38:32;59.40;;;45.43;;
9294;SDS011;4686;44.496;11.324;2022-12-07T14:41:00;60.63;;;45.70;;
9294;SDS011;4686;44.496;11.324;2022-12-07T14:43:42;61.53;;;43.90;;
9294;SDS011;4686;44.496;11.324;2022-12-07T14:46:10;57.40;;;44.27;;
9294;SDS011;4686;44.496;11.324;2022-12-07T14:48:38;58.00;;;44.50;;
9294;SDS011;4686;44.496;11.324;2022-12-07T14:51:07;59.57;;;43.93;;
9294;SDS011;4686;44.496;11.324;2022-12-07T14:53:37;60.17;;;45.33;;
9294;SDS011;4686;44.496;11.324;2022-12-07T14:56:05;56.80;;;43.17;;
9294;SDS011;4686;44.496;11.324;2022-12-07T14:58:33;53.30;;;43.73;;
9294;SDS011;4686;44.496;11.324;2022-12-07T15:01:02;52.67;;;41.97;;
9294;SDS011;4686;44.496;11.324;2022-12-07T15:03:29;54.50;;;43.77;;
9294;SDS011;4686;44.496;11.324;2022-12-07T15:05:56;51.63;;;41.60;;